Terminal Aerodrome Forecast
Issued by NWS Bismarck, ND

Home | Current Version | Previous Version | Graphics & Text | Print | Product List | Glossary On
Versions: 1 2 3 4 5 6 7 8 9 10 11 12 13 14 15 16 17 18 19 20 21 22 23 24
000
FTUS43 KBIS 250846 AAA
TAFBIS
TAF AMD
KBIS 250846Z 2509/2606 31005KT P6SM OVC035
     FM251200 33004KT P6SM OVC025
     FM251900 35007KT P6SM VCSH OVC020
     FM252000 36006KT P6SM OVC020=

USA.gov is the U.S. government's official web portal to all federal, state and local government web resources and services.